sensor_id;sensor_type;location;lat;lon;timestamp;P1;durP1;ratioP1;P2;durP2;ratioP2
43823;SDS011;29470;53.550;9.926;2023-07-02T00:00:39;8.93;;;3.78;;
43823;SDS011;29470;53.550;9.926;2023-07-02T00:05:43;8.90;;;4.38;;
43823;SDS011;29470;53.550;9.926;2023-07-02T00:10:46;7.72;;;3.42;;
43823;SDS011;29470;53.550;9.926;2023-07-02T00:15:51;9.68;;;3.95;;
43823;SDS011;29470;53.550;9.926;2023-07-02T00:20:54;6.72;;;3.97;;
43823;SDS011;29470;53.550;9.926;2023-07-02T00:25:57;9.13;;;3.97;;
43823;SDS011;29470;53.550;9.926;2023-07-02T00:31:01;8.05;;;4.40;;
43823;SDS011;29470;53.550;9.926;2023-07-02T00:36:04;6.07;;;3.70;;
43823;SDS011;29470;53.550;9.926;2023-07-02T00:41:09;7.13;;;3.42;;
43823;SDS011;29470;53.550;9.926;2023-07-02T00:46:14;4.88;;;3.35;;
43823;SDS011;29470;53.550;9.926;2023-07-02T00:51:21;4.90;;;3.10;;
43823;SDS011;29470;53.550;9.926;2023-07-02T00:56:26;8.77;;;3.15;;
43823;SDS011;29470;53.550;9.926;2023-07-02T01:01:30;6.10;;;3.55;;
43823;SDS011;29470;53.550;9.926;2023-07-02T01:06:39;6.72;;;3.60;;
43823;SDS011;29470;53.550;9.926;2023-07-02T01:11:43;6.22;;;3.42;;
43823;SDS011;29470;53.550;9.926;2023-07-02T01:16:53;10.07;;;4.35;;
43823;SDS011;29470;53.550;9.926;2023-07-02T01:21:59;7.45;;;3.70;;
43823;SDS011;29470;53.550;9.926;2023-07-02T01:27:02;7.05;;;3.80;;
43823;SDS011;29470;53.550;9.926;2023-07-02T01:32:06;9.43;;;3.90;;
43823;SDS011;29470;53.550;9.926;2023-07-02T01:37:10;5.22;;;3.95;;
43823;SDS011;29470;53.550;9.926;2023-07-02T01:42:14;6.53;;;3.75;;
43823;SDS011;29470;53.550;9.926;2023-07-02T01:47:18;11.13;;;4.45;;
43823;SDS011;29470;53.550;9.926;2023-07-02T01:52:23;6.95;;;4.03;;
43823;SDS011;29470;53.550;9.926;2023-07-02T01:57:26;6.65;;;4.00;;
43823;SDS011;29470;53.550;9.926;2023-07-02T02:02:29;8.65;;;4.00;;
43823;SDS011;29470;53.550;9.926;2023-07-02T02:07:33;11.77;;;4.90;;
43823;SDS011;29470;53.550;9.926;2023-07-02T02:12:37;8.80;;;5.05;;
43823;SDS011;29470;53.550;9.926;2023-07-02T02:17:41;8.32;;;5.50;;
43823;SDS011;29470;53.550;9.926;2023-07-02T02:22:45;10.20;;;5.78;;
43823;SDS011;29470;53.550;9.926;2023-07-02T02:27:48;10.80;;;5.25;;
43823;SDS011;29470;53.550;9.926;2023-07-02T02:32:50;8.95;;;4.97;;
43823;SDS011;29470;53.550;9.926;2023-07-02T02:37:55;10.85;;;5.65;;
43823;SDS011;29470;53.550;9.926;2023-07-02T02:42:58;9.63;;;5.20;;
43823;SDS011;29470;53.550;9.926;2023-07-02T02:48:01;10.18;;;4.82;;
43823;SDS011;29470;53.550;9.926;2023-07-02T02:53:07;10.00;;;5.32;;
43823;SDS011;29470;53.550;9.926;2023-07-02T02:58:10;8.75;;;5.28;;
43823;SDS011;29470;53.550;9.926;2023-07-02T03:03:13;9.00;;;4.80;;
43823;SDS011;29470;53.550;9.926;2023-07-02T03:08:18;10.50;;;5.15;;
43823;SDS011;29470;53.550;9.926;2023-07-02T03:13:21;10.23;;;5.22;;
43823;SDS011;29470;53.550;9.926;2023-07-02T03:18:24;9.63;;;5.35;;
43823;SDS011;29470;53.550;9.926;2023-07-02T03:23:28;12.98;;;5.20;;
43823;SDS011;29470;53.550;9.926;2023-07-02T03:28:31;11.10;;;5.22;;
43823;SDS011;29470;53.550;9.926;2023-07-02T03:33:36;8.90;;;4.97;;
43823;SDS011;29470;53.550;9.926;2023-07-02T03:38:40;9.68;;;4.93;;
43823;SDS011;29470;53.550;9.926;2023-07-02T03:43:43;10.88;;;4.93;;
43823;SDS011;29470;53.550;9.926;2023-07-02T03:48:46;11.05;;;4.53;;
43823;SDS011;29470;53.550;9.926;2023-07-02T03:53:50;9.45;;;4.68;;
43823;SDS011;29470;53.550;9.926;2023-07-02T03:58:53;12.27;;;4.88;;
43823;SDS011;29470;53.550;9.926;2023-07-02T04:03:56;13.90;;;5.00;;
43823;SDS011;29470;53.550;9.926;2023-07-02T04:09:00;15.63;;;5.60;;
43823;SDS011;29470;53.550;9.926;2023-07-02T04:14:03;12.38;;;4.97;;
43823;SDS011;29470;53.550;9.926;2023-07-02T04:19:06;12.82;;;4.88;;
43823;SDS011;29470;53.550;9.926;2023-07-02T04:24:10;15.13;;;5.00;;
43823;SDS011;29470;53.550;9.926;2023-07-02T04:29:14;11.77;;;4.45;;
43823;SDS011;29470;53.550;9.926;2023-07-02T04:34:17;14.27;;;4.53;;
43823;SDS011;29470;53.550;9.926;2023-07-02T04:39:24;15.05;;;4.57;;
43823;SDS011;29470;53.550;9.926;2023-07-02T04:44:27;12.55;;;5.30;;
43823;SDS011;29470;53.550;9.926;2023-07-02T04:49:33;14.02;;;4.85;;
43823;SDS011;29470;53.550;9.926;2023-07-02T04:54:37;19.65;;;5.18;;
43823;SDS011;29470;53.550;9.926;2023-07-02T04:59:41;16.60;;;5.28;;
43823;SDS011;29470;53.550;9.926;2023-07-02T05:04:44;12.40;;;5.38;;
43823;SDS011;29470;53.550;9.926;2023-07-02T05:09:48;16.20;;;5.75;;
43823;SDS011;29470;53.550;9.926;2023-07-02T05:14:53;15.30;;;5.30;;
43823;SDS011;29470;53.550;9.926;2023-07-02T05:19:56;20.42;;;6.18;;
43823;SDS011;29470;53.550;9.926;2023-07-02T05:25:00;13.63;;;5.57;;
43823;SDS011;29470;53.550;9.926;2023-07-02T05:30:03;14.95;;;5.28;;
43823;SDS011;29470;53.550;9.926;2023-07-02T05:35:07;11.73;;;5.53;;
43823;SDS011;29470;53.550;9.926;2023-07-02T05:40:12;18.42;;;6.97;;
43823;SDS011;29470;53.550;9.926;2023-07-02T05:45:18;15.82;;;5.78;;
43823;SDS011;29470;53.550;9.926;2023-07-02T05:50:21;18.73;;;6.10;;
43823;SDS011;29470;53.550;9.926;2023-07-02T05:55:25;19.63;;;6.60;;
43823;SDS011;29470;53.550;9.926;2023-07-02T06:00:28;17.15;;;5.88;;
43823;SDS011;29470;53.550;9.926;2023-07-02T06:05:31;18.98;;;6.78;;
43823;SDS011;29470;53.550;9.926;2023-07-02T06:10:36;15.90;;;6.38;;
43823;SDS011;29470;53.550;9.926;2023-07-02T06:15:39;21.48;;;7.22;;
43823;SDS011;29470;53.550;9.926;2023-07-02T06:20:42;18.33;;;6.68;;
43823;SDS011;29470;53.550;9.926;2023-07-02T06:25:46;17.05;;;6.22;;
43823;SDS011;29470;53.550;9.926;2023-07-02T06:30:51;18.33;;;6.18;;
43823;SDS011;29470;53.550;9.926;2023-07-02T06:35:57;23.20;;;6.45;;
43823;SDS011;29470;53.550;9.926;2023-07-02T06:41:01;19.17;;;6.13;;
43823;SDS011;29470;53.550;9.926;2023-07-02T06:46:04;22.42;;;6.70;;
43823;SDS011;29470;53.550;9.926;2023-07-02T06:51:07;16.33;;;6.13;;
43823;SDS011;29470;53.550;9.926;2023-07-02T06:56:12;23.33;;;7.13;;
43823;SDS011;29470;53.550;9.926;2023-07-02T07:01:14;18.10;;;6.28;;
43823;SDS011;29470;53.550;9.926;2023-07-02T07:06:17;17.75;;;6.70;;
43823;SDS011;29470;53.550;9.926;2023-07-02T07:11:23;17.95;;;6.68;;
43823;SDS011;29470;53.550;9.926;2023-07-02T07:16:26;23.23;;;6.75;;
43823;SDS011;29470;53.550;9.926;2023-07-02T07:21:29;20.05;;;7.40;;
43823;SDS011;29470;53.550;9.926;2023-07-02T07:26:33;16.77;;;6.20;;
43823;SDS011;29470;53.550;9.926;2023-07-02T07:31:36;18.73;;;6.82;;
43823;SDS011;29470;53.550;9.926;2023-07-02T07:36:39;24.05;;;7.20;;
43823;SDS011;29470;53.550;9.926;2023-07-02T07:41:47;19.83;;;6.88;;
43823;SDS011;29470;53.550;9.926;2023-07-02T07:46:50;18.05;;;6.35;;
43823;SDS011;29470;53.550;9.926;2023-07-02T07:51:53;20.15;;;6.40;;
43823;SDS011;29470;53.550;9.926;2023-07-02T07:56:57;13.93;;;5.47;;
43823;SDS011;29470;53.550;9.926;2023-07-02T08:02:00;13.30;;;5.97;;
43823;SDS011;29470;53.550;9.926;2023-07-02T08:07:03;14.18;;;5.68;;
43823;SDS011;29470;53.550;9.926;2023-07-02T08:12:11;11.50;;;5.23;;
43823;SDS011;29470;53.550;9.926;2023-07-02T08:17:14;11.38;;;5.32;;
43823;SDS011;29470;53.550;9.926;2023-07-02T08:22:17;15.63;;;5.90;;
43823;SDS011;29470;53.550;9.926;2023-07-02T08:27:21;12.52;;;5.10;;
43823;SDS011;29470;53.550;9.926;2023-07-02T08:32:24;9.13;;;4.72;;
43823;SDS011;29470;53.550;9.926;2023-07-02T08:37:27;15.05;;;5.25;;
43823;SDS011;29470;53.550;9.926;2023-07-02T08:42:31;11.55;;;4.28;;
43823;SDS011;29470;53.550;9.926;2023-07-02T08:47:35;12.30;;;4.45;;
43823;SDS011;29470;53.550;9.926;2023-07-02T08:52:44;11.98;;;4.80;;
43823;SDS011;29470;53.550;9.926;2023-07-02T09:02:55;13.13;;;5.03;;
43823;SDS011;29470;53.550;9.926;2023-07-02T09:07:58;10.77;;;4.03;;
43823;SDS011;29470;53.550;9.926;2023-07-02T09:13:06;11.48;;;4.45;;
43823;SDS011;29470;53.550;9.926;2023-07-02T09:18:14;13.40;;;4.53;;
43823;SDS011;29470;53.550;9.926;2023-07-02T09:23:20;12.65;;;4.90;;
43823;SDS011;29470;53.550;9.926;2023-07-02T09:28:25;12.68;;;4.82;;
43823;SDS011;29470;53.550;9.926;2023-07-02T09:33:28;10.20;;;4.18;;
43823;SDS011;29470;53.550;9.926;2023-07-02T09:38:31;13.02;;;4.90;;
43823;SDS011;29470;53.550;9.926;2023-07-02T09:43:36;10.48;;;4.53;;
43823;SDS011;29470;53.550;9.926;2023-07-02T09:48:39;11.32;;;4.22;;
43823;SDS011;29470;53.550;9.926;2023-07-02T09:53:42;11.57;;;4.10;;
43823;SDS011;29470;53.550;9.926;2023-07-02T09:58:46;10.40;;;3.83;;
43823;SDS011;29470;53.550;9.926;2023-07-02T10:03:49;11.15;;;3.72;;
43823;SDS011;29470;53.550;9.926;2023-07-02T10:08:53;11.63;;;3.67;;
43823;SDS011;29470;53.550;9.926;2023-07-02T10:14:00;11.95;;;3.80;;
43823;SDS011;29470;53.550;9.926;2023-07-02T10:19:09;10.52;;;3.85;;
43823;SDS011;29470;53.550;9.926;2023-07-02T10:24:12;11.68;;;3.75;;
43823;SDS011;29470;53.550;9.926;2023-07-02T10:29:19;13.57;;;3.95;;
43823;SDS011;29470;53.550;9.926;2023-07-02T10:34:29;10.07;;;4.28;;
43823;SDS011;29470;53.550;9.926;2023-07-02T10:39:34;13.20;;;3.95;;
43823;SDS011;29470;53.550;9.926;2023-07-02T10:44:49;8.43;;;3.40;;
43823;SDS011;29470;53.550;9.926;2023-07-02T10:49:53;10.10;;;4.00;;
43823;SDS011;29470;53.550;9.926;2023-07-02T10:54:55;8.30;;;3.75;;
43823;SDS011;29470;53.550;9.926;2023-07-02T11:00:04;10.77;;;3.40;;
43823;SDS011;29470;53.550;9.926;2023-07-02T11:05:09;12.02;;;2.90;;
43823;SDS011;29470;53.550;9.926;2023-07-02T11:10:17;8.57;;;2.78;;
43823;SDS011;29470;53.550;9.926;2023-07-02T11:15:24;10.10;;;3.35;;
43823;SDS011;29470;53.550;9.926;2023-07-02T11:20:27;7.85;;;3.03;;
43823;SDS011;29470;53.550;9.926;2023-07-02T11:25:36;7.18;;;2.40;;
43823;SDS011;29470;53.550;9.926;2023-07-02T11:30:45;10.15;;;2.80;;
43823;SDS011;29470;53.550;9.926;2023-07-02T11:35:48;6.13;;;2.78;;
43823;SDS011;29470;53.550;9.926;2023-07-02T11:40:51;6.28;;;2.55;;
43823;SDS011;29470;53.550;9.926;2023-07-02T11:45:56;5.82;;;2.63;;
43823;SDS011;29470;53.550;9.926;2023-07-02T11:50:58;5.90;;;2.30;;
43823;SDS011;29470;53.550;9.926;2023-07-02T11:56:01;5.85;;;2.20;;
43823;SDS011;29470;53.550;9.926;2023-07-02T12:01:06;7.43;;;2.42;;
43823;SDS011;29470;53.550;9.926;2023-07-02T12:06:09;5.95;;;2.30;;
43823;SDS011;29470;53.550;9.926;2023-07-02T12:11:12;7.88;;;2.20;;
43823;SDS011;29470;53.550;9.926;2023-07-02T12:16:16;9.20;;;2.90;;
43823;SDS011;29470;53.550;9.926;2023-07-02T12:21:19;6.40;;;2.50;;
43823;SDS011;29470;53.550;9.926;2023-07-02T12:26:22;7.25;;;2.63;;
43823;SDS011;29470;53.550;9.926;2023-07-02T12:31:26;8.07;;;2.65;;
43823;SDS011;29470;53.550;9.926;2023-07-02T12:36:29;9.00;;;2.63;;
43823;SDS011;29470;53.550;9.926;2023-07-02T12:41:32;7.22;;;2.95;;
43823;SDS011;29470;53.550;9.926;2023-07-02T12:46:36;7.28;;;2.40;;
43823;SDS011;29470;53.550;9.926;2023-07-02T12:51:39;9.80;;;2.22;;
43823;SDS011;29470;53.550;9.926;2023-07-02T12:56:42;6.30;;;2.53;;
43823;SDS011;29470;53.550;9.926;2023-07-02T13:01:47;8.30;;;2.65;;
43823;SDS011;29470;53.550;9.926;2023-07-02T13:06:50;7.55;;;2.40;;
43823;SDS011;29470;53.550;9.926;2023-07-02T13:11:54;6.85;;;2.22;;
43823;SDS011;29470;53.550;9.926;2023-07-02T13:16:58;7.93;;;2.55;;
43823;SDS011;29470;53.550;9.926;2023-07-02T13:22:01;7.22;;;2.40;;
43823;SDS011;29470;53.550;9.926;2023-07-02T13:27:05;9.52;;;2.38;;
43823;SDS011;29470;53.550;9.926;2023-07-02T13:32:14;7.35;;;1.63;;
43823;SDS011;29470;53.550;9.926;2023-07-02T13:37:17;7.38;;;2.40;;
43823;SDS011;29470;53.550;9.926;2023-07-02T13:42:20;6.45;;;2.30;;
43823;SDS011;29470;53.550;9.926;2023-07-02T13:47:24;7.60;;;2.20;;
43823;SDS011;29470;53.550;9.926;2023-07-02T13:52:30;4.82;;;1.80;;
43823;SDS011;29470;53.550;9.926;2023-07-02T13:57:32;9.65;;;2.00;;
43823;SDS011;29470;53.550;9.926;2023-07-02T14:02:37;8.27;;;2.33;;
43823;SDS011;29470;53.550;9.926;2023-07-02T14:07:40;6.57;;;2.13;;
43823;SDS011;29470;53.550;9.926;2023-07-02T14:12:43;7.95;;;2.10;;
43823;SDS011;29470;53.550;9.926;2023-07-02T14:17:47;6.88;;;2.10;;
43823;SDS011;29470;53.550;9.926;2023-07-02T14:22:50;4.72;;;1.80;;
43823;SDS011;29470;53.550;9.926;2023-07-02T14:27:53;6.43;;;1.92;;
43823;SDS011;29470;53.550;9.926;2023-07-02T14:32:57;5.63;;;2.30;;
43823;SDS011;29470;53.550;9.926;2023-07-02T14:38:00;6.68;;;1.92;;
43823;SDS011;29470;53.550;9.926;2023-07-02T14:43:03;5.70;;;2.15;;
43823;SDS011;29470;53.550;9.926;2023-07-02T14:48:07;7.05;;;2.40;;
43823;SDS011;29470;53.550;9.926;2023-07-02T14:53:10;8.60;;;2.50;;
43823;SDS011;29470;53.550;9.926;2023-07-02T14:58:14;5.78;;;2.45;;
43823;SDS011;29470;53.550;9.926;2023-07-02T15:03:29;4.75;;;2.50;;
43823;SDS011;29470;53.550;9.926;2023-07-02T15:08:52;5.38;;;2.30;;
43823;SDS011;29470;53.550;9.926;2023-07-02T15:14:01;6.82;;;2.50;;
43823;SDS011;29470;53.550;9.926;2023-07-02T15:19:14;5.97;;;2.40;;
43823;SDS011;29470;53.550;9.926;2023-07-02T15:24:26;6.78;;;2.40;;
43823;SDS011;29470;53.550;9.926;2023-07-02T15:29:28;6.18;;;2.30;;
43823;SDS011;29470;53.550;9.926;2023-07-02T15:34:32;7.20;;;2.50;;
43823;SDS011;29470;53.550;9.926;2023-07-02T15:39:35;7.28;;;2.30;;
43823;SDS011;29470;53.550;9.926;2023-07-02T15:44:38;4.40;;;2.15;;
43823;SDS011;29470;53.550;9.926;2023-07-02T15:49:42;6.45;;;2.17;;
43823;SDS011;29470;53.550;9.926;2023-07-02T15:54:45;8.02;;;2.22;;
43823;SDS011;29470;53.550;9.926;2023-07-02T15:59:49;5.07;;;2.30;;
43823;SDS011;29470;53.550;9.926;2023-07-02T16:04:53;8.45;;;2.65;;
43823;SDS011;29470;53.550;9.926;2023-07-02T16:09:59;8.13;;;2.15;;
43823;SDS011;29470;53.550;9.926;2023-07-02T16:15:09;5.18;;;2.40;;
43823;SDS011;29470;53.550;9.926;2023-07-02T16:20:13;8.07;;;2.55;;
43823;SDS011;29470;53.550;9.926;2023-07-02T16:25:16;9.13;;;2.90;;
43823;SDS011;29470;53.550;9.926;2023-07-02T16:30:22;7.82;;;2.80;;
43823;SDS011;29470;53.550;9.926;2023-07-02T16:35:28;7.85;;;2.55;;
43823;SDS011;29470;53.550;9.926;2023-07-02T16:40:30;9.73;;;3.08;;
43823;SDS011;29470;53.550;9.926;2023-07-02T16:45:34;10.57;;;5.15;;
43823;SDS011;29470;53.550;9.926;2023-07-02T16:50:38;8.63;;;3.67;;
43823;SDS011;29470;53.550;9.926;2023-07-02T16:55:41;8.60;;;3.53;;
43823;SDS011;29470;53.550;9.926;2023-07-02T17:00:45;7.82;;;2.92;;
43823;SDS011;29470;53.550;9.926;2023-07-02T17:11:58;7.47;;;3.13;;
43823;SDS011;29470;53.550;9.926;2023-07-02T17:17:04;8.02;;;2.95;;
43823;SDS011;29470;53.550;9.926;2023-07-02T17:22:12;7.03;;;3.15;;
43823;SDS011;29470;53.550;9.926;2023-07-02T17:28:06;11.13;;;3.05;;
43823;SDS011;29470;53.550;9.926;2023-07-02T17:33:10;11.32;;;3.33;;
43823;SDS011;29470;53.550;9.926;2023-07-02T17:38:17;10.00;;;3.47;;
43823;SDS011;29470;53.550;9.926;2023-07-02T17:43:24;9.88;;;3.70;;
43823;SDS011;29470;53.550;9.926;2023-07-02T17:48:28;7.50;;;3.30;;
43823;SDS011;29470;53.550;9.926;2023-07-02T17:53:46;8.10;;;3.40;;
43823;SDS011;29470;53.550;9.926;2023-07-02T17:59:39;10.05;;;3.55;;
43823;SDS011;29470;53.550;9.926;2023-07-02T18:11:20;8.98;;;4.03;;
43823;SDS011;29470;53.550;9.926;2023-07-02T18:16:24;8.68;;;4.18;;
43823;SDS011;29470;53.550;9.926;2023-07-02T18:21:31;8.20;;;3.40;;
43823;SDS011;29470;53.550;9.926;2023-07-02T18:26:34;9.32;;;4.05;;
43823;SDS011;29470;53.550;9.926;2023-07-02T18:32:10;9.65;;;3.63;;
43823;SDS011;29470;53.550;9.926;2023-07-02T18:43:34;9.73;;;3.85;;
43823;SDS011;29470;53.550;9.926;2023-07-02T18:49:56;8.30;;;3.63;;
43823;SDS011;29470;53.550;9.926;2023-07-02T19:02:36;8.57;;;3.65;;
43823;SDS011;29470;53.550;9.926;2023-07-02T19:21:55;8.57;;;3.35;;
43823;SDS011;29470;53.550;9.926;2023-07-02T19:28:16;10.20;;;3.88;;
43823;SDS011;29470;53.550;9.926;2023-07-02T19:59:34;10.60;;;3.67;;
43823;SDS011;29470;53.550;9.926;2023-07-02T20:04:37;10.60;;;3.40;;
43823;SDS011;29470;53.550;9.926;2023-07-02T20:09:40;15.75;;;6.20;;
43823;SDS011;29470;53.550;9.926;2023-07-02T20:14:45;10.63;;;3.65;;
43823;SDS011;29470;53.550;9.926;2023-07-02T20:19:49;9.07;;;3.30;;
43823;SDS011;29470;53.550;9.926;2023-07-02T20:24:53;9.98;;;3.58;;
43823;SDS011;29470;53.550;9.926;2023-07-02T20:58:01;8.27;;;3.65;;
43823;SDS011;29470;53.550;9.926;2023-07-02T21:03:04;10.10;;;2.90;;
43823;SDS011;29470;53.550;9.926;2023-07-02T21:08:07;9.18;;;3.70;;
43823;SDS011;29470;53.550;9.926;2023-07-02T21:52:01;9.05;;;3.72;;
43823;SDS011;29470;53.550;9.926;2023-07-02T22:04:37;8.48;;;3.40;;
43823;SDS011;29470;53.550;9.926;2023-07-02T22:18:01;10.80;;;3.80;;
43823;SDS011;29470;53.550;9.926;2023-07-02T22:23:04;10.43;;;3.38;;
43823;SDS011;29470;53.550;9.926;2023-07-02T22:28:08;10.35;;;3.80;;
43823;SDS011;29470;53.550;9.926;2023-07-02T22:33:22;7.90;;;3.70;;
43823;SDS011;29470;53.550;9.926;2023-07-02T22:38:25;11.68;;;4.40;;
43823;SDS011;29470;53.550;9.926;2023-07-02T22:43:31;9.40;;;3.80;;
43823;SDS011;29470;53.550;9.926;2023-07-02T22:48:45;9.88;;;3.78;;
43823;SDS011;29470;53.550;9.926;2023-07-02T22:53:48;10.63;;;3.47;;
43823;SDS011;29470;53.550;9.926;2023-07-02T22:58:50;6.63;;;2.90;;
43823;SDS011;29470;53.550;9.926;2023-07-02T23:03:57;10.30;;;3.75;;
43823;SDS011;29470;53.550;9.926;2023-07-02T23:09:10;9.20;;;3.95;;
43823;SDS011;29470;53.550;9.926;2023-07-02T23:14:13;10.60;;;4.07;;
43823;SDS011;29470;53.550;9.926;2023-07-02T23:19:17;7.20;;;3.70;;
43823;SDS011;29470;53.550;9.926;2023-07-02T23:24:21;12.00;;;4.07;;
43823;SDS011;29470;53.550;9.926;2023-07-02T23:29:24;9.15;;;3.47;;
43823;SDS011;29470;53.550;9.926;2023-07-02T23:34:29;8.68;;;3.67;;
43823;SDS011;29470;53.550;9.926;2023-07-02T23:39:40;15.02;;;4.78;;
43823;SDS011;29470;53.550;9.926;2023-07-02T23:44:45;10.43;;;3.95;;
43823;SDS011;29470;53.550;9.926;2023-07-02T23:49:49;8.25;;;3.85;;
43823;SDS011;29470;53.550;9.926;2023-07-02T23:54:52;8.55;;;3.53;;
43823;SDS011;29470;53.550;9.926;2023-07-02T23:59:54;9.02;;;3.63;;
